Time;durP1;ratioP1;P1;durP2;ratioP2;P2;SDS_P1;SDS_P2;PMS_P1;PMS_P2;Temp;Humidity;BMP_temperature;BMP_pressure;BME280_temperature;BME280_humidity;BME280_pressure;Samples;Min_cycle;Max_cycle;Signal;HPM_P1;HPM_P2
2022/07/07 00:01:09;;;;;;;0.20;0.20;;;;;;;14.74;96.90;99874.69;5124875;28;20023;-67
2022/07/07 00:03:35;;;;;;;0.20;0.20;;;;;;;14.72;97.55;99874.75;5125135;28;20104;-67
2022/07/07 00:06:00;;;;;;;0.20;0.20;;;;;;;14.76;97.07;99867.63;5125053;28;20049;-66
2022/07/07 00:08:26;;;;;;;0.20;0.20;;;;;;;14.73;97.39;99865.13;5125102;28;20058;-67
2022/07/07 00:10:51;;;;;;;0.20;0.20;;;;;;;14.78;97.11;99873.66;5125953;28;20051;-67
2022/07/07 00:13:17;;;;;;;0.20;0.20;;;;;;;14.75;97.27;99863.31;5125646;28;20085;-67
2022/07/07 00:15:45;;;;;;;0.20;0.20;;;;;;;14.72;97.48;99861.69;5125212;28;20106;-67
2022/07/07 00:18:14;;;;;;;0.20;0.20;;;;;;;14.71;97.72;99857.34;5125664;28;20019;-67
2022/07/07 00:20:39;;;;;;;0.30;0.30;;;;;;;14.70;97.56;99865.22;5125380;28;20023;-67
2022/07/07 00:23:04;;;;;;;0.20;0.20;;;;;;;14.77;97.61;99860.66;5125621;28;20020;-67
2022/07/07 00:25:30;;;;;;;0.20;0.20;;;;;;;14.75;97.58;99858.09;5125629;28;20564;-67
2022/07/07 00:27:55;;;;;;;0.20;0.20;;;;;;;14.73;97.62;99854.66;5125366;28;20088;-67
2022/07/07 00:30:21;;;;;;;0.20;0.20;;;;;;;14.70;97.70;99852.16;5125369;28;20027;-66
2022/07/07 00:32:46;;;;;;;0.20;0.20;;;;;;;14.69;98.00;99846.09;5125395;28;20024;-67
2022/07/07 00:35:12;;;;;;;0.20;0.20;;;;;;;14.66;98.28;99847.97;5125038;28;20024;-66
2022/07/07 00:37:37;;;;;;;0.20;0.20;;;;;;;14.65;98.72;99847.09;5125002;28;20046;-67
2022/07/07 00:40:03;;;;;;;0.30;0.30;;;;;;;14.63;98.56;99843.72;5125346;28;20320;-67
2022/07/07 00:42:29;;;;;;;0.20;0.20;;;;;;;14.64;98.73;99845.41;5125095;28;20043;-67
2022/07/07 00:44:54;;;;;;;0.20;0.20;;;;;;;14.61;99.35;99841.16;5125060;28;20027;-66
2022/07/07 00:47:20;;;;;;;0.20;0.20;;;;;;;14.64;99.37;99834.97;5125067;28;20364;-67
2022/07/07 00:49:45;;;;;;;0.20;0.20;;;;;;;14.68;99.57;99833.09;5124988;28;20075;-67
2022/07/07 00:52:11;;;;;;;0.20;0.20;;;;;;;14.71;99.41;99833.00;5125085;28;20443;-67
2022/07/07 00:54:37;;;;;;;0.20;0.20;;;;;;;14.72;99.44;99826.84;5106730;28;20050;-66
2022/07/07 00:57:05;;;;;;;1.60;1.50;;;;;;;14.71;99.38;99828.59;5124822;28;20031;-67
2022/07/07 00:59:32;;;;;;;0.20;0.20;;;;;;;14.69;99.44;99827.81;5125003;28;20463;-67
2022/07/07 01:01:58;;;;;;;0.20;0.20;;;;;;;14.72;99.48;99824.22;5124744;28;20087;-68
2022/07/07 01:04:24;;;;;;;0.20;0.20;;;;;;;14.71;99.59;99825.97;5124557;28;20024;-67
2022/07/07 01:06:49;;;;;;;0.20;0.20;;;;;;;14.75;99.68;99827.59;5124889;28;20023;-67
2022/07/07 01:09:16;;;;;;;0.30;0.30;;;;;;;14.77;99.98;99826.69;5124760;28;20023;-66
2022/07/07 01:11:51;;;;;;;0.20;0.20;;;;;;;14.78;99.82;99820.53;5124049;28;20020;-67
2022/07/07 01:14:17;;;;;;;0.20;0.20;;;;;;;14.81;100.00;99820.50;5124193;28;20034;-67
2022/07/07 01:16:43;;;;;;;0.28;0.28;;;;;;;14.81;100.00;99815.25;5124599;28;20025;-66
2022/07/07 01:19:08;;;;;;;0.30;0.30;;;;;;;14.80;100.00;99813.53;5124343;28;20069;-66
2022/07/07 01:21:42;;;;;;;0.20;0.20;;;;;;;14.80;100.00;99814.41;5124321;28;20441;-67
2022/07/07 01:24:07;;;;;;;0.20;0.20;;;;;;;14.79;100.00;99806.59;5124523;28;20031;-68
2022/07/07 01:26:33;;;;;;;0.20;0.20;;;;;;;14.82;100.00;99806.50;5124098;28;20092;-67
2022/07/07 01:28:59;;;;;;;5.57;2.40;;;;;;;14.79;100.00;99812.69;5124500;28;20034;-66
2022/07/07 01:31:24;;;;;;;0.20;0.20;;;;;;;14.80;100.00;99811.78;5124324;28;20046;-66
2022/07/07 01:33:50;;;;;;;0.30;0.30;;;;;;;14.82;100.00;99807.38;5124135;28;20020;-65
2022/07/07 01:36:15;;;;;;;0.20;0.20;;;;;;;14.84;100.00;99809.94;5124203;28;20020;-66
2022/07/07 01:38:40;;;;;;;0.20;0.20;;;;;;;14.80;100.00;99798.72;5105895;28;20023;-66
2022/07/07 01:41:06;;;;;;;0.30;0.30;;;;;;;14.80;100.00;99797.84;5124029;28;20291;-66
2022/07/07 01:43:31;;;;;;;0.30;0.30;;;;;;;14.74;100.00;99783.25;5123835;28;20085;-66
2022/07/07 01:45:57;;;;;;;0.20;0.20;;;;;;;14.79;100.00;99797.00;5124137;28;20056;-67
2022/07/07 01:48:23;;;;;;;0.20;0.20;;;;;;;14.83;100.00;99792.53;5123737;28;20024;-66
2022/07/07 01:50:48;;;;;;;0.20;0.20;;;;;;;14.83;100.00;99797.75;5123904;28;20051;-67
2022/07/07 01:53:14;;;;;;;0.20;0.20;;;;;;;14.81;100.00;99789.13;5105738;28;20069;-67
2022/07/07 01:55:39;;;;;;;0.20;0.20;;;;;;;14.79;100.00;99783.94;5124127;28;20023;-67
2022/07/07 01:58:05;;;;;;;0.20;0.20;;;;;;;14.75;100.00;99785.78;5123799;28;20023;-66
2022/07/07 02:00:31;;;;;;;0.20;0.20;;;;;;;14.72;100.00;99785.91;5123953;28;20038;-66
2022/07/07 02:02:56;;;;;;;0.20;0.20;;;;;;;14.74;100.00;99786.69;5123775;28;20428;-67
2022/07/07 02:05:22;;;;;;;0.20;0.20;;;;;;;14.73;100.00;99791.97;5123598;28;20023;-68
2022/07/07 02:07:48;;;;;;;0.20;0.20;;;;;;;14.72;100.00;99788.53;5123909;28;20083;-67
2022/07/07 02:11:12;;;;;;;0.20;0.20;;;;;;;14.73;100.00;99786.75;5123986;28;20047;-67
2022/07/07 02:12:59;;;;;;;0.20;0.20;;;;;;;14.76;100.00;99786.63;5123481;28;20475;-67
2022/07/07 02:15:25;;;;;;;0.20;0.20;;;;;;;14.79;100.00;99785.69;5123669;28;20028;-66
2022/07/07 02:17:50;;;;;;;0.20;0.20;;;;;;;14.81;100.00;99787.34;5123749;28;20038;-67
2022/07/07 02:20:15;;;;;;;0.20;0.20;;;;;;;14.79;100.00;99785.69;5123592;28;20031;-67
2022/07/07 02:22:41;;;;;;;0.20;0.20;;;;;;;14.73;100.00;99787.59;5123461;28;20279;-67
2022/07/07 02:25:06;;;;;;;0.20;0.20;;;;;;;14.75;100.00;99787.53;5127145;28;20510;-66
2022/07/07 02:27:32;;;;;;;0.20;0.20;;;;;;;14.74;100.00;99785.84;5127932;28;20024;-67
2022/07/07 02:29:57;;;;;;;0.20;0.20;;;;;;;14.74;100.00;99780.63;5127824;28;20034;-66
2022/07/07 02:32:22;;;;;;;0.25;0.25;;;;;;;14.76;100.00;99781.41;5127793;28;20016;-66
2022/07/07 02:34:47;;;;;;;0.30;0.30;;;;;;;14.76;100.00;99778.78;5127483;28;20467;-66
2022/07/07 02:37:13;;;;;;;0.30;0.30;;;;;;;14.72;100.00;99775.47;5127521;28;20027;-66
2022/07/07 02:39:38;;;;;;;0.20;0.20;;;;;;;14.73;100.00;99774.53;5127725;28;20405;-66
2022/07/07 02:42:04;;;;;;;0.30;0.30;;;;;;;14.74;100.00;99778.84;5127652;28;20028;-66
2022/07/07 02:44:29;;;;;;;0.20;0.20;;;;;;;14.74;100.00;99770.19;5127790;28;20024;-66
2022/07/07 02:46:54;;;;;;;0.20;0.20;;;;;;;14.73;100.00;99774.53;5127388;28;20026;-66
2022/07/07 02:49:20;;;;;;;0.20;0.20;;;;;;;14.78;100.00;99774.38;5127306;28;20019;-65
2022/07/07 02:51:46;;;;;;;0.20;0.20;;;;;;;14.74;100.00;99763.16;5127423;28;20023;-66
2022/07/07 02:54:11;;;;;;;0.20;0.20;;;;;;;14.67;100.00;99753.00;5127493;28;20034;-67
2022/07/07 02:56:37;;;;;;;0.20;0.20;;;;;;;14.73;100.00;99768.44;5127398;28;20482;-66
2022/07/07 02:59:02;;;;;;;0.20;0.20;;;;;;;14.75;100.00;99764.03;5127542;28;20485;-67
2022/07/07 03:01:27;;;;;;;0.30;0.30;;;;;;;14.70;100.00;99768.56;5127187;28;20059;-66
2022/07/07 03:03:53;;;;;;;0.20;0.20;;;;;;;14.70;100.00;99768.56;5127053;28;20118;-66
2022/07/07 03:06:18;;;;;;;0.20;0.20;;;;;;;14.60;100.00;99762.84;5127221;28;20035;-66
2022/07/07 03:08:44;;;;;;;0.30;0.30;;;;;;;14.55;100.00;99770.84;5127205;28;20049;-67
2022/07/07 03:11:09;;;;;;;0.20;0.20;;;;;;;14.53;100.00;99770.03;5127106;28;20015;-69
2022/07/07 03:13:35;;;;;;;0.22;0.22;;;;;;;14.46;100.00;99761.56;5126991;28;20122;-67
2022/07/07 03:16:00;;;;;;;0.22;0.22;;;;;;;14.41;100.00;99768.69;5127052;28;20031;-67
2022/07/07 03:18:26;;;;;;;0.20;0.20;;;;;;;14.38;100.00;99776.63;5126757;28;20020;-66
2022/07/07 03:20:54;;;;;;;0.20;0.20;;;;;;;14.32;100.00;99764.66;5126815;28;20111;-67
2022/07/07 03:23:19;;;;;;;0.20;0.20;;;;;;;14.37;100.00;99772.31;5126827;28;20414;-67
2022/07/07 03:25:44;;;;;;;0.20;0.20;;;;;;;14.34;100.00;99769.81;5126537;28;20040;-66
2022/07/07 03:28:10;;;;;;;0.20;0.20;;;;;;;14.24;100.00;99775.34;5125799;28;20015;-67
2022/07/07 03:30:35;;;;;;;0.20;0.20;;;;;;;14.21;100.00;99766.78;5125902;28;20024;-67
2022/07/07 03:33:00;;;;;;;0.20;0.20;;;;;;;14.23;100.00;99764.97;5126271;28;20032;-67
2022/07/07 03:35:26;;;;;;;0.20;0.20;;;;;;;14.23;100.00;99771.03;5125210;28;20043;-67
2022/07/07 03:37:51;;;;;;;0.20;0.20;;;;;;;14.26;100.00;99764.88;5126346;28;20031;-68
2022/07/07 03:40:17;;;;;;;0.20;0.20;;;;;;;14.30;100.00;99768.19;5126557;28;20118;-67
2022/07/07 03:42:42;;;;;;;0.20;0.20;;;;;;;14.31;100.00;99760.34;5126285;28;20057;-67
2022/07/07 03:45:08;;;;;;;0.20;0.20;;;;;;;14.37;100.00;99761.88;5126471;28;20052;-67
2022/07/07 03:47:34;;;;;;;0.20;0.20;;;;;;;14.32;100.00;99759.44;5126266;28;20076;-66
2022/07/07 03:49:59;;;;;;;0.70;0.70;;;;;;;14.44;100.00;99765.13;5126010;28;20024;-67
2022/07/07 03:52:24;;;;;;;0.20;0.20;;;;;;;14.48;100.00;99769.34;5126152;28;20037;-66
2022/07/07 03:54:50;;;;;;;0.30;0.30;;;;;;;14.57;100.00;99768.16;5126369;28;20019;-66
2022/07/07 03:57:15;;;;;;;0.95;0.95;;;;;;;14.65;100.00;99765.28;5126101;28;20030;-67
2022/07/07 03:59:41;;;;;;;0.20;0.20;;;;;;;14.65;100.00;99770.50;5126094;28;20028;-66
2022/07/07 04:02:07;;;;;;;0.20;0.20;;;;;;;14.67;100.00;99771.28;5126128;28;20027;-67
2022/07/07 04:04:32;;;;;;;0.93;0.88;;;;;;;14.68;100.00;99765.16;5117666;28;20016;-66
2022/07/07 04:06:58;;;;;;;0.20;0.20;;;;;;;14.73;100.00;99765.84;5125828;28;20019;-66
2022/07/07 04:09:23;;;;;;;0.75;0.75;;;;;;;14.71;100.00;99767.66;5125955;28;20455;-68
2022/07/07 04:11:48;;;;;;;0.20;0.20;;;;;;;14.70;100.00;99772.03;5125846;28;20034;-68
2022/07/07 04:14:14;;;;;;;0.20;0.20;;;;;;;14.71;100.00;99780.75;5125960;28;20046;-67
2022/07/07 04:16:39;;;;;;;0.20;0.20;;;;;;;14.67;100.00;99776.50;5125818;28;20054;-68
2022/07/07 04:19:04;;;;;;;0.20;0.20;;;;;;;14.73;100.00;99771.94;5125427;28;20031;-66
2022/07/07 04:21:30;;;;;;;0.20;0.20;;;;;;;14.73;100.00;99782.38;5125789;28;20024;-69
2022/07/07 04:23:55;;;;;;;0.20;0.20;;;;;;;14.69;100.00;99779.94;5125849;28;20020;-68
2022/07/07 04:26:21;;;;;;;0.20;0.20;;;;;;;14.76;100.00;99778.78;5125599;28;20078;-69
2022/07/07 04:28:46;;;;;;;0.20;0.20;;;;;;;14.79;100.00;99780.47;5125696;28;20026;-68
2022/07/07 04:31:11;;;;;;;0.20;0.20;;;;;;;14.73;100.00;99781.50;5125421;28;20031;-68
2022/07/07 04:33:37;;;;;;;0.20;0.20;;;;;;;14.73;100.00;99777.16;5125578;28;20023;-68
2022/07/07 04:36:02;;;;;;;0.20;0.20;;;;;;;14.78;100.00;99779.59;5125160;28;20028;-69
2022/07/07 04:38:27;;;;;;;0.20;0.20;;;;;;;14.79;100.00;99781.31;5125392;28;20030;-68
2022/07/07 04:40:53;;;;;;;0.20;0.20;;;;;;;14.82;100.00;99778.63;5125363;28;20051;-67
2022/07/07 04:43:18;;;;;;;0.20;0.20;;;;;;;14.82;100.00;99778.63;5125260;28;20016;-69
2022/07/07 04:45:44;;;;;;;0.20;0.20;;;;;;;14.77;100.00;99782.25;5125201;28;20059;-69
2022/07/07 04:48:09;;;;;;;0.20;0.20;;;;;;;14.73;100.00;99779.75;5124945;28;20035;-68
2022/07/07 04:50:34;;;;;;;0.20;0.20;;;;;;;14.69;100.00;99775.56;5125057;28;20049;-69
2022/07/07 04:53:00;;;;;;;0.30;0.30;;;;;;;14.63;100.00;99776.63;5124835;28;20506;-69
2022/07/07 04:55:25;;;;;;;0.20;0.20;;;;;;;14.65;100.00;99773.13;5124302;28;20023;-69
2022/07/07 04:57:50;;;;;;;0.20;0.20;;;;;;;14.67;100.00;99768.66;5124716;28;20057;-69
2022/07/07 05:00:16;;;;;;;0.20;0.20;;;;;;;14.67;100.00;99768.66;5124851;28;20028;-69
2022/07/07 05:02:42;;;;;;;0.20;0.20;;;;;;;14.79;100.00;99777.84;5124829;28;20028;-69
2022/07/07 05:05:07;;;;;;;0.20;0.20;;;;;;;14.85;100.00;99780.25;5124549;28;20427;-69
2022/07/07 05:07:33;;;;;;;0.20;0.20;;;;;;;14.92;100.00;99780.91;5124884;28;20037;-70
2022/07/07 05:09:59;;;;;;;0.20;0.20;;;;;;;14.97;100.00;99773.72;5124982;28;20031;-69
2022/07/07 05:12:24;;;;;;;0.20;0.20;;;;;;;15.03;100.00;99772.66;5124891;28;20020;-68
2022/07/07 05:14:50;;;;;;;0.20;0.20;;;;;;;15.10;100.00;99777.59;5124646;28;20027;-68
2022/07/07 05:17:15;;;;;;;0.20;0.20;;;;;;;15.25;100.00;99775.31;5124497;28;20023;-69
2022/07/07 05:19:40;;;;;;;0.20;0.20;;;;;;;15.31;100.00;99780.31;5124287;28;20023;-67
2022/07/07 05:22:07;;;;;;;0.20;0.20;;;;;;;15.33;100.00;99778.50;5124295;28;20095;-68
2022/07/07 05:24:33;;;;;;;0.20;0.20;;;;;;;15.41;100.00;99782.56;5124518;28;20059;-66
2022/07/07 05:26:58;;;;;;;0.20;0.20;;;;;;;15.55;100.00;99785.50;5124142;28;20133;-67
2022/07/07 05:29:23;;;;;;;0.20;0.20;;;;;;;15.65;100.00;99788.59;5124447;28;20061;-67
2022/07/07 05:31:49;;;;;;;0.20;0.20;;;;;;;15.70;100.00;99791.03;5124495;28;20059;-67
2022/07/07 05:34:14;;;;;;;0.20;0.20;;;;;;;15.72;100.00;99794.44;5124059;28;20103;-70
2022/07/07 05:36:39;;;;;;;0.20;0.20;;;;;;;15.74;100.00;99793.47;5124312;28;20016;-70
2022/07/07 05:39:06;;;;;;;0.20;0.20;;;;;;;15.77;100.00;99794.28;5124309;28;20030;-69
2022/07/07 05:41:31;;;;;;;0.20;0.20;;;;;;;15.76;100.00;99797.78;5124188;28;20099;-70
2022/07/07 05:43:57;;;;;;;1.33;1.00;;;;;;;15.73;100.00;99798.78;5124042;28;20440;-70
2022/07/07 05:46:22;;;;;;;0.20;0.20;;;;;;;15.67;100.00;99801.63;5124054;28;20023;-70
2022/07/07 05:48:48;;;;;;;0.20;0.20;;;;;;;15.65;100.00;99804.31;5124130;28;20020;-70
2022/07/07 05:51:13;;;;;;;0.20;0.20;;;;;;;15.59;100.00;99800.16;5124149;28;20058;-69
2022/07/07 05:53:38;;;;;;;0.20;0.20;;;;;;;15.60;100.00;99809.72;5124130;28;20075;-69
2022/07/07 05:56:04;;;;;;;0.20;0.20;;;;;;;15.52;100.00;99798.69;5124176;28;20024;-69
2022/07/07 05:58:29;;;;;;;0.20;0.20;;;;;;;15.55;100.00;99810.78;5104814;28;20020;-65
2022/07/07 06:00:55;;;;;;;0.20;0.20;;;;;;;15.48;100.00;99812.78;5123940;28;20114;-70
2022/07/07 06:03:21;;;;;;;0.20;0.20;;;;;;;15.47;100.00;99814.56;5123411;28;20024;-67
2022/07/07 06:05:47;;;;;;;0.20;0.20;;;;;;;15.45;100.00;99811.16;5123598;28;20022;-67
2022/07/07 06:08:12;;;;;;;0.30;0.30;;;;;;;15.51;100.00;99817.91;5123735;28;20386;-68
2022/07/07 06:10:38;;;;;;;0.20;0.20;;;;;;;15.49;100.00;99817.97;5123583;28;20027;-68
2022/07/07 06:13:03;;;;;;;0.20;0.20;;;;;;;15.37;100.00;99818.44;5123878;28;20092;-68
2022/07/07 06:15:33;;;;;;;0.20;0.20;;;;;;;15.29;100.00;99820.50;5123821;28;20503;-68
2022/07/07 06:18:00;;;;;;;0.63;0.63;;;;;;;15.32;100.00;99823.84;5123638;28;20023;-69
2022/07/07 06:20:26;;;;;;;0.20;0.20;;;;;;;15.38;100.00;99820.16;5123467;28;20467;-67
2022/07/07 06:22:51;;;;;;;0.20;0.20;;;;;;;15.46;100.00;99828.53;5123775;28;20027;-68
2022/07/07 06:25:17;;;;;;;0.20;0.20;;;;;;;15.60;100.00;99820.19;5123714;28;20051;-69
2022/07/07 06:27:42;;;;;;;0.20;0.20;;;;;;;15.77;100.00;99825.69;5123729;28;20048;-67
2022/07/07 06:30:08;;;;;;;0.22;0.22;;;;;;;15.84;100.00;99830.59;5123494;28;20076;-68
2022/07/07 06:32:34;;;;;;;0.20;0.20;;;;;;;15.93;100.00;99821.50;5123617;28;20018;-68
2022/07/07 06:34:59;;;;;;;0.20;0.20;;;;;;;16.06;100.00;99832.38;5123440;28;20114;-69
2022/07/07 06:37:25;;;;;;;0.20;0.20;;;;;;;16.02;100.00;99829.94;5123327;28;20030;-68
2022/07/07 06:39:50;;;;;;;0.20;0.20;;;;;;;16.09;100.00;99827.00;5123368;28;20102;-67
2022/07/07 06:42:16;;;;;;;0.20;0.20;;;;;;;16.07;100.00;99831.44;5104945;28;20024;-68
2022/07/07 06:44:41;;;;;;;0.20;0.20;;;;;;;16.04;100.00;99828.97;5123528;28;20026;-68
2022/07/07 06:47:07;;;;;;;0.20;0.20;;;;;;;16.05;100.00;99830.69;5123500;28;20130;-69
2022/07/07 06:49:32;;;;;;;0.20;0.20;;;;;;;16.07;100.00;99833.25;5115058;28;20106;-69
2022/07/07 06:51:58;;;;;;;0.20;0.20;;;;;;;16.10;100.00;99839.19;5123494;28;20475;-69
2022/07/07 06:54:23;;;;;;;0.20;0.20;;;;;;;16.12;100.00;99840.91;5123398;28;20041;-69
2022/07/07 06:56:49;;;;;;;0.20;0.20;;;;;;;16.25;100.00;99834.22;5123396;28;20019;-69
2022/07/07 06:59:14;;;;;;;0.20;0.20;;;;;;;16.42;100.00;99841.38;5123335;28;20047;-67
2022/07/07 07:01:40;;;;;;;0.20;0.20;;;;;;;16.56;100.00;99847.81;5123280;28;20041;-67
2022/07/07 07:04:07;;;;;;;0.20;0.20;;;;;;;16.60;100.00;99852.88;5123081;28;20265;-66
2022/07/07 07:06:33;;;;;;;0.20;0.20;;;;;;;16.63;100.00;99857.09;5123188;28;20024;-64
2022/07/07 07:08:59;;;;;;;0.20;0.20;;;;;;;16.57;100.00;99863.47;5123243;28;20028;-64
2022/07/07 07:11:27;;;;;;;0.20;0.20;;;;;;;16.49;100.00;99865.56;5126841;28;20051;-65
2022/07/07 07:13:53;;;;;;;0.20;0.20;;;;;;;16.46;100.00;99866.56;5127149;28;20015;-64
2022/07/07 07:16:19;;;;;;;0.20;0.20;;;;;;;16.42;100.00;99870.19;5127010;28;20389;-64
2022/07/07 07:18:45;;;;;;;0.20;0.20;;;;;;;16.44;100.00;99868.38;5127044;28;20087;-65
2022/07/07 07:21:11;;;;;;;0.20;0.20;;;;;;;16.45;100.00;99870.06;5127050;28;20023;-65
2022/07/07 07:23:37;;;;;;;0.20;0.20;;;;;;;16.46;100.00;99873.56;5108511;28;20489;-65
2022/07/07 07:26:07;;;;;;;0.20;0.20;;;;;;;16.54;100.00;99874.09;5126405;28;20043;-65
2022/07/07 07:28:33;;;;;;;0.20;0.20;;;;;;;16.47;100.00;99877.88;5125761;28;20074;-64
2022/07/07 07:30:58;;;;;;;0.20;0.20;;;;;;;16.54;100.00;99883.72;5125642;28;20024;-64
2022/07/07 07:33:24;;;;;;;0.20;0.20;;;;;;;16.58;100.00;99880.88;5126442;28;20028;-65
2022/07/07 07:35:49;;;;;;;0.20;0.20;;;;;;;16.65;100.00;99883.25;5126378;28;20043;-64
2022/07/07 07:38:15;;;;;;;0.20;0.20;;;;;;;16.68;100.00;99890.97;5126523;28;20045;-65
2022/07/07 07:40:40;;;;;;;0.20;0.20;;;;;;;16.72;100.00;99887.34;5126611;28;20024;-65
2022/07/07 07:43:06;;;;;;;0.20;0.20;;;;;;;16.75;100.00;99907.31;5126270;28;20392;-64
2022/07/07 07:45:31;;;;;;;0.30;0.30;;;;;;;16.64;100.00;99908.63;5126538;28;20047;-64
2022/07/07 07:47:57;;;;;;;0.20;0.20;;;;;;;16.20;97.67;99875.47;5126268;28;20020;-66
2022/07/07 07:50:23;;;;;;;0.20;0.20;;;;;;;15.72;96.20;99915.66;5126431;28;20031;-65
2022/07/07 07:52:49;;;;;;;0.20;0.20;;;;;;;15.36;97.05;99906.53;5126516;28;20043;-66
2022/07/07 07:55:17;;;;;;;0.20;0.20;;;;;;;15.13;98.35;99925.63;5126564;28;20031;-66
2022/07/07 07:57:43;;;;;;;0.20;0.20;;;;;;;15.02;99.22;99923.41;5126243;28;20073;-66
2022/07/07 08:00:11;;;;;;;0.20;0.20;;;;;;;15.03;100.00;99927.72;5125994;28;20019;-67
2022/07/07 08:02:36;;;;;;;0.20;0.20;;;;;;;15.14;100.00;99926.50;5126241;28;20418;-66
2022/07/07 08:05:02;;;;;;;0.20;0.20;;;;;;;15.20;100.00;99921.06;5125933;28;20522;-65
2022/07/07 08:07:28;;;;;;;0.20;0.20;;;;;;;15.30;100.00;99926.81;5126132;28;20037;-65
2022/07/07 08:09:53;;;;;;;0.20;0.20;;;;;;;15.41;100.00;99916.81;5126179;28;20019;-65
2022/07/07 08:12:18;;;;;;;0.20;0.20;;;;;;;15.57;100.00;99927.56;5126130;28;20076;-65
2022/07/07 08:14:44;;;;;;;0.20;0.20;;;;;;;15.75;100.00;99927.75;5126164;28;20028;-65
2022/07/07 08:17:10;;;;;;;0.20;0.20;;;;;;;15.90;100.00;99938.56;5125933;28;20066;-65
2022/07/07 08:19:35;;;;;;;0.20;0.20;;;;;;;16.10;100.00;99940.47;5125655;28;20023;-65
2022/07/07 08:22:01;;;;;;;0.20;0.20;;;;;;;16.26;100.00;99948.56;5125311;28;20103;-65
2022/07/07 08:24:26;;;;;;;0.20;0.20;;;;;;;16.40;100.00;99949.78;5125779;28;20102;-65
2022/07/07 08:26:51;;;;;;;0.20;0.20;;;;;;;16.55;100.00;99954.38;5125403;28;20574;-66
2022/07/07 08:29:17;;;;;;;0.20;0.20;;;;;;;16.73;100.00;99954.56;5125727;28;20031;-66
2022/07/07 08:31:42;;;;;;;0.20;0.20;;;;;;;16.89;100.00;99956.53;5125483;28;20023;-67
2022/07/07 08:34:07;;;;;;;0.20;0.20;;;;;;;17.29;100.00;99961.84;5125377;28;20027;-69
2022/07/07 08:36:34;;;;;;;0.20;0.20;;;;;;;17.53;100.00;99980.06;5125464;28;20027;-68
2022/07/07 08:39:00;;;;;;;0.20;0.20;;;;;;;17.66;99.34;99975.13;5124565;28;20023;-67
2022/07/07 08:41:26;;;;;;;0.20;0.20;;;;;;;17.77;98.99;99986.00;5125033;28;20023;-67
2022/07/07 08:43:52;;;;;;;0.20;0.20;;;;;;;17.86;99.43;99989.13;5125254;28;20027;-67
2022/07/07 08:46:17;;;;;;;0.20;0.20;;;;;;;18.02;99.98;99995.34;5125418;28;20367;-68
2022/07/07 08:48:43;;;;;;;0.20;0.20;;;;;;;18.08;98.37;100000.31;5125248;28;20087;-69
2022/07/07 08:51:08;;;;;;;0.20;0.20;;;;;;;17.95;97.63;100000.06;5125085;28;20026;-69
2022/07/07 08:53:36;;;;;;;0.20;0.20;;;;;;;18.14;98.44;99999.25;5125005;28;20028;-69
2022/07/07 08:56:08;;;;;;;0.20;0.20;;;;;;;18.19;96.79;100009.53;5124970;28;20054;-70
2022/07/07 08:58:37;;;;;;;;;;;;;;;18.06;93.85;100017.94;5125645;28;20028;-70
2022/07/07 09:01:03;;;;;;;0.32;0.32;;;;;;;17.75;92.42;100024.56;5125025;28;20336;-70
2022/07/07 09:03:29;;;;;;;0.20;0.20;;;;;;;17.69;93.11;100019.59;5124819;28;20020;-70
2022/07/07 09:05:57;;;;;;;0.20;0.20;;;;;;;17.66;93.53;100022.38;5124885;28;20058;-70
2022/07/07 09:08:23;;;;;;;0.30;0.30;;;;;;;18.03;93.19;100030.38;5124590;28;20058;-70
2022/07/07 09:10:50;;;;;;;0.20;0.20;;;;;;;17.96;91.38;100024.53;5125131;28;20021;-72
2022/07/07 09:13:32;;;;;;;0.20;0.20;;;;;;;17.87;92.13;100014.44;5124779;28;20060;-72
2022/07/07 09:16:13;;;;;;;0.20;0.20;;;;;;;18.87;93.31;100023.81;5124785;28;20024;-71
2022/07/07 09:18:40;;;;;;;0.20;0.20;;;;;;;19.82;89.06;100028.72;5124543;28;20115;-70
2022/07/07 09:21:23;;;;;;;0.10;0.10;;;;;;;20.42;88.35;100036.94;5106312;28;20430;-71
2022/07/07 09:23:53;;;;;;;0.20;0.20;;;;;;;20.74;87.74;100039.53;5124574;28;20106;-73
2022/07/07 09:26:37;;;;;;;0.20;0.20;;;;;;;20.38;85.55;100038.91;5124356;28;20074;-70
2022/07/07 09:29:04;;;;;;;0.20;0.20;;;;;;;19.84;83.59;100037.38;5124491;28;20103;-70
2022/07/07 09:31:51;;;;;;;0.10;0.10;;;;;;;19.61;85.53;100041.22;5124783;28;20048;-69
2022/07/07 09:34:18;;;;;;;0.20;0.20;;;;;;;19.36;86.87;100045.13;5123312;28;20023;-70
2022/07/07 09:39:41;;;;;;;0.13;0.13;;;;;;;18.80;86.64;100048.72;5124303;28;20038;-69
2022/07/07 09:42:18;;;;;;;0.20;0.20;;;;;;;18.44;86.31;100064.41;5105922;28;20016;-69
2022/07/07 09:44:47;;;;;;;0.20;0.20;;;;;;;18.27;88.81;100061.72;5124180;28;20031;-68
2022/07/07 09:47:12;;;;;;;0.20;0.20;;;;;;;18.75;91.21;100072.63;5105862;28;20046;-69
2022/07/07 09:49:43;;;;;;;0.10;0.10;;;;;;;19.95;91.60;100068.44;5123931;28;20251;-70
2022/07/07 09:52:18;;;;;;;0.20;0.20;;;;;;;21.19;89.74;100065.16;5124218;28;20193;-69
2022/07/07 09:54:49;;;;;;;0.10;0.10;;;;;;;22.11;85.84;100064.16;5124047;28;20025;-70
2022/07/07 09:57:15;;;;;;;0.20;0.20;;;;;;;22.87;81.15;100067.28;5124275;28;20099;-69
2022/07/07 09:59:41;;;;;;;0.20;0.20;;;;;;;23.34;79.71;100071.28;5123953;28;20027;-70
2022/07/07 10:02:16;;;;;;;0.10;0.10;;;;;;;24.27;80.03;100069.34;5123867;28;20028;-70
2022/07/07 10:04:46;;;;;;;0.10;0.10;;;;;;;24.03;71.20;100067.47;5123694;28;20030;-70
2022/07/07 10:07:13;;;;;;;0.10;0.10;;;;;;;22.69;70.11;100085.19;5124192;28;20084;-70
2022/07/07 10:09:43;;;;;;;0.30;0.30;;;;;;;21.55;70.82;100071.84;5123844;28;20058;-71
2022/07/07 10:12:08;;;;;;;0.10;0.10;;;;;;;20.76;74.27;100100.13;5105742;28;20475;-70
2022/07/07 10:14:35;;;;;;;0.20;0.20;;;;;;;20.22;75.64;100115.34;5123797;28;20140;-69
2022/07/07 10:17:02;;;;;;;0.10;0.10;;;;;;;19.88;77.42;100117.09;5105236;28;20023;-71
2022/07/07 10:19:28;;;;;;;0.10;0.10;;;;;;;20.21;79.69;100118.06;5123153;28;20019;-69
2022/07/07 10:21:55;;;;;;;0.13;0.13;;;;;;;21.07;78.12;100121.31;5123927;28;20417;-70
2022/07/07 10:24:23;;;;;;;0.10;0.10;;;;;;;21.91;76.64;100114.66;5123711;28;20015;-71
2022/07/07 10:26:53;;;;;;;0.13;0.13;;;;;;;22.04;73.06;100117.38;5105017;28;20059;-70
2022/07/07 10:29:45;;;;;;;0.20;0.20;;;;;;;21.35;74.69;100127.63;5123731;28;20034;-69
2022/07/07 10:32:18;;;;;;;0.13;0.13;;;;;;;21.01;74.51;100141.81;5123711;28;20409;-70
2022/07/07 10:34:52;;;;;;;0.20;0.20;;;;;;;20.43;71.16;100136.19;5123516;28;20102;-69
2022/07/07 10:37:20;;;;;;;0.20;0.20;;;;;;;20.02;72.53;100133.06;5123688;28;20015;-69
2022/07/07 10:39:48;;;;;;;0.20;0.20;;;;;;;19.74;72.05;100123.94;5123919;28;20020;-69
2022/07/07 10:42:17;;;;;;;0.20;0.20;;;;;;;19.73;73.85;100151.19;5123653;28;20047;-69
2022/07/07 10:44:48;;;;;;;0.20;0.20;;;;;;;20.43;74.72;100152.03;5124016;28;20065;-69
2022/07/07 10:47:16;;;;;;;0.20;0.20;;;;;;;20.98;72.59;100142.00;5127188;28;20055;-69
2022/07/07 10:49:46;;;;;;;0.20;0.20;;;;;;;21.51;72.19;100148.69;5108746;28;20024;-69
2022/07/07 10:52:16;;;;;;;0.20;0.20;;;;;;;22.27;72.47;100141.53;5127897;28;20047;-70
2022/07/07 10:54:47;;;;;;;0.10;0.10;;;;;;;22.56;70.98;100155.69;5127424;28;20024;-70
2022/07/07 10:57:13;;;;;;;0.20;0.20;;;;;;;22.60;70.55;100163.38;5127528;28;20510;-70
2022/07/07 11:00:19;;;;;;;0.10;0.10;;;;;;;22.94;68.61;100154.22;5127596;28;20050;-70
2022/07/07 11:02:51;;;;;;;0.10;0.10;;;;;;;22.41;66.87;100158.34;5126662;28;20088;-69
2022/07/07 11:05:16;;;;;;;0.10;0.10;;;;;;;22.02;69.48;100152.78;5127173;28;20047;-69
2022/07/07 11:08:08;;;;;;;0.95;0.95;;;;;;;21.57;69.31;100164.19;5127171;28;20061;-70
2022/07/07 11:10:36;;;;;;;0.20;0.20;;;;;;;21.30;69.85;100178.06;5127191;28;20019;-71
2022/07/07 11:13:20;;;;;;;0.10;0.10;;;;;;;21.24;69.98;100175.75;5127363;28;20047;-69
2022/07/07 11:16:08;;;;;;;0.10;0.10;;;;;;;21.15;69.15;100172.69;5127531;28;20383;-69
2022/07/07 11:18:34;;;;;;;0.10;0.10;;;;;;;20.80;69.76;100173.72;5127008;28;20031;-69
2022/07/07 11:21:03;;;;;;;0.20;0.20;;;;;;;20.62;71.71;100169.47;5127006;28;20026;-69
2022/07/07 11:23:44;;;;;;;0.20;0.20;;;;;;;20.60;72.12;100179.25;5127017;28;20217;-69
2022/07/07 11:26:10;;;;;;;0.20;0.20;;;;;;;20.46;69.71;100172.94;5126531;28;20127;-69
2022/07/07 11:28:36;;;;;;;0.20;0.20;;;;;;;20.25;68.05;100185.47;5107520;28;20023;-69